Nearby METAR Reports

 

KCMA - Camarillo, California, USA
Distance from station: WSW 4mi, 7km
Updated: Sun, 22-Oct-2017 11:55am PDT
Clear
Clear
 Wind from ENE
Wind: ENE 20 mph , 31 km/h
Temperature: 93°F , 34°C
Dew Point: 28°F , -2°C
Humidity: 10%
Barometer: 30.11 inHg , 1019.6 hPa
Clouds: Clear
Visibility: 10 miles , 16 km
2017/10/22 18:55 KCMA 221855Z 06017KT 10SM CLR 34/M02 A3011 RMK AO2 SLP202 T03441022
KNTD - Point Mugu Nas, California, USA
Distance from station: SSW 9mi, 15km
Updated: Sun, 22-Oct-2017 11:56am PDT
Few Clouds
Few Clouds
 Wind from NE
Wind: NE 14 mph , 22 km/h, Gust: 20 mph , 31 km/h
Temperature: 93°F , 34°C
Dew Point: 36°F , 2°C
Humidity: 13%
Barometer: 30.11 inHg , 1019.6 hPa
Clouds: Few Clouds
Visibility: 10 miles , 16 km
Cloud details: Few Clouds 20000 ft
2017/10/22 18:56 KNTD 221856Z 04012G17KT 10SM FEW200 34/02 A3011 RMK AO2 SLP197 T03390017 $
 
KOXR - Oxnard, California, USA
Distance from station: WSW 10mi, 16km
Updated: Sun, 22-Oct-2017 11:51am PDT
Clear
Clear
 Wind from WNW
Wind: WNW 10 mph , 17 km/h
Temperature: 81°F , 27°C
Dew Point: 48°F , 9°C
Humidity: 32%
Barometer: 30.12 inHg , 1020 hPa
Clouds: Clear
Visibility: 10 miles , 16 km
2017/10/22 18:51 KOXR 221851Z 29009KT 10SM CLR 27/09 A3012 RMK AO2 SLP197 T02670094 $
KVNY - Van Nuys, California, USA
Distance from station: E 31mi, 50km
Updated: Sun, 22-Oct-2017 11:51am PDT
Clear
Clear
 Wind from varies
Wind: varies 3 mph , 6 km/h
Temperature: 90°F , 32°C
Dew Point: 21°F , -6°C
Humidity: 8%
Barometer: 30.13 inHg , 1020.3 hPa
Clouds: Clear
Visibility: 10 miles , 16 km
2017/10/22 18:51 KVNY 221851Z VRB03KT 10SM CLR 32/M06 A3013 RMK AO2 SLP191 T03221061
 
KWHP - La / Whiteman, California, USA
Distance from station: E 35mi, 56km
Updated: Sun, 22-Oct-2017 11:55am PDT
Clear
Clear
 Wind from calm
Wind: Calm
Temperature: 86°F , 30°C
Dew Point: 27°F , -3°C
Humidity: 11%
Barometer: 30.17 inHg , 1021.7 hPa
Clouds: Clear
Visibility: 10 miles , 16 km
2017/10/22 18:55 KWHP 221855Z 00000KT 10SM SKC 30/M03 A3017
KSMO - Santa Monica, California, USA
Distance from station: ESE 36mi, 58km
Updated: Sun, 22-Oct-2017 11:51am PDT
Clear
Clear
 Wind from WSW
Wind: WSW 6 mph , 9 km/h
Temperature: 81°F , 27°C
Dew Point: 41°F , 5°C
Humidity: 24%
Barometer: 30.12 inHg , 1020 hPa
Clouds: Clear
Visibility: 10 miles , 16 km
2017/10/22 18:51 KSMO 221851Z 24005KT 10SM CLR 27/05 A3012 RMK AO2 SLP197 T02720050
 
KBUR - Burbank, California, USA
Distance from station: E 38mi, 61km
Updated: Sun, 22-Oct-2017 11:53am PDT
Clear
Clear
 Wind from SSE
Wind: SSE 3 mph , 6 km/h
Temperature: 84°F , 29°C
Dew Point: 27°F , -3°C
Humidity: 12%
Barometer: 30.13 inHg , 1020.3 hPa
Clouds: Clear
Visibility: 10 miles , 16 km
2017/10/22 18:53 KBUR 221853Z 15003KT 10SM CLR 29/M03 A3013 RMK AO2 SLP190 T02941028
KSDB - Sandberg, California, USA
Distance from station: NNE 40mi, 64km
Updated: Sun, 22-Oct-2017 11:53am PDT
Clear
Clear
 Wind from ENE
Wind: ENE 22 mph , 35 km/h, Gust: 29 mph , 46 km/h
Temperature: 72°F , 22°C
Dew Point: 19°F , -7°C
Humidity: 14%
Barometer: 30.38 inHg , 1028.8 hPa
Clouds: Clear
Visibility: 10 miles , 16 km
2017/10/22 18:53 KSDB 221853Z AUTO 07019G25KT 10SM CLR 22/M07 A3038 RMK AO2 SLP246 T02171067
 
KLAX - Los Angeles, California, USA
Distance from station: ESE 42mi, 68km
Updated: Sun, 22-Oct-2017 11:53am PDT
Few Clouds
Few Clouds
 Wind from WSW
Wind: WSW 7 mph , 11 km/h
Temperature: 84°F , 29°C
Dew Point: 45°F , 7°C
Humidity: 25%
Barometer: 30.11 inHg , 1019.6 hPa
Clouds: Few Clouds
Visibility: 10 miles , 16 km
Cloud details: Few Clouds 25000 ft
2017/10/22 18:53 KLAX 221853Z 25006KT 10SM FEW250 29/07 A3011 RMK AO2 SLP195 T02940067
KCQT - Los Angeles, California, USA
Distance from station: ESE 45mi, 73km
Updated: Sun, 22-Oct-2017 11:47am PDT
Clear
Clear
 Wind from calm
Wind: Calm
Temperature: 88°F , 31°C
Dew Point: 34°F , 1°C
Humidity: 15%
Barometer: 30.10 inHg , 1019.3 hPa
Clouds: Clear
Visibility: 10 miles , 16 km
2017/10/22 18:47 KCQT 221847Z AUTO 00000KT 10SM CLR 31/01 A3010 RMK AO2 SLP189 T03110006 $
 
KHHR - Hawthorne, California, USA
Distance from station: ESE 45mi, 73km
Updated: Sun, 22-Oct-2017 11:53am PDT
Clear
Clear
 Wind from calm
Wind: Calm
Temperature: 88°F , 31°C
Dew Point: 32°F , 0°C
Humidity: 13%
Barometer: 30.11 inHg , 1019.6 hPa
Clouds: Clear
Visibility: 10 miles , 16 km
2017/10/22 18:53 KHHR 221853Z 00000KT 10SM CLR 31/00 A3011 RMK AO2 SLP195 T03060000
KSBA - Santa Barbara, California, USA
Distance from station: WNW 49mi, 79km
Updated: Sun, 22-Oct-2017 11:53am PDT
Clear
Clear
 Wind from SE
Wind: SE 6 mph , 9 km/h
Temperature: 72°F , 22°C
Dew Point: 52°F , 11°C
Humidity: 50%
Barometer: 30.12 inHg , 1020 hPa
Clouds: Clear
Visibility: 10 miles , 16 km
2017/10/22 18:53 KSBA 221853Z 14005KT 10SM CLR 22/11 A3012 RMK AO2 SLP199 T02220111